createdAt,value
2023-03-10T00:00:41.628Z,994.41
2023-03-10T00:01:45.693Z,994.40
2023-03-10T00:02:49.964Z,994.38
2023-03-10T00:03:54.063Z,994.37
2023-03-10T00:04:58.439Z,994.37
2023-03-10T00:06:02.623Z,994.34
2023-03-10T00:07:07.531Z,994.30
2023-03-10T00:08:11.186Z,994.29
2023-03-10T00:09:15.379Z,994.26
2023-03-10T00:10:19.559Z,994.25
2023-03-10T00:11:23.683Z,994.26
2023-03-10T00:12:28.086Z,994.23
2023-03-10T00:13:32.099Z,994.23
2023-03-10T00:14:36.129Z,994.24
2023-03-10T00:15:40.401Z,994.24
2023-03-10T00:16:44.474Z,994.27
2023-03-10T00:17:48.563Z,994.25
2023-03-10T00:18:52.728Z,994.24
2023-03-10T00:19:56.793Z,994.21
2023-03-10T00:21:01.188Z,994.19
2023-03-10T00:22:05.043Z,994.17
2023-03-10T00:23:09.250Z,994.16
2023-03-10T00:24:13.333Z,994.16
2023-03-10T00:25:17.554Z,994.15
2023-03-10T00:26:21.701Z,994.13
2023-03-10T00:27:25.868Z,994.13
2023-03-10T00:28:30.006Z,994.10
2023-03-10T00:29:34.080Z,994.07
2023-03-10T00:30:38.243Z,994.07
2023-03-10T00:31:42.361Z,994.07
2023-03-10T00:33:00.536Z,994.04
2023-03-10T00:34:03.233Z,994.06
2023-03-10T00:35:07.198Z,994.06
2023-03-10T00:36:11.427Z,994.04
2023-03-10T00:37:15.557Z,994.02
2023-03-10T00:38:19.655Z,993.99
2023-03-10T00:39:23.896Z,993.98
2023-03-10T00:40:27.999Z,993.97
2023-03-10T00:41:32.023Z,993.98
2023-03-10T00:42:36.179Z,993.96
2023-03-10T00:43:40.399Z,993.94
2023-03-10T00:44:44.503Z,993.92
2023-03-10T00:45:48.660Z,993.90
2023-03-10T00:46:52.846Z,993.90
2023-03-10T00:47:57.016Z,993.87
2023-03-10T00:49:01.141Z,993.83
2023-03-10T00:50:05.333Z,993.79
2023-03-10T00:51:09.435Z,993.78
2023-03-10T00:52:13.628Z,993.75
2023-03-10T00:53:17.781Z,993.76
2023-03-10T00:54:21.940Z,993.76
2023-03-10T00:55:26.096Z,993.75
2023-03-10T00:56:30.223Z,993.74
2023-03-10T00:57:34.444Z,993.72
2023-03-10T00:58:38.568Z,993.76
2023-03-10T00:59:50.498Z,993.75
2023-03-10T01:00:46.786Z,993.72
2023-03-10T01:01:51.144Z,993.71
2023-03-10T01:02:55.152Z,993.68
2023-03-10T01:03:59.381Z,993.64
2023-03-10T01:05:03.589Z,993.63
2023-03-10T01:06:07.792Z,993.60
2023-03-10T01:07:11.802Z,993.58
2023-03-10T01:08:15.973Z,993.57
2023-03-10T01:09:20.273Z,993.56
2023-03-10T01:10:24.337Z,993.54
2023-03-10T01:11:28.453Z,993.53
2023-03-10T01:12:32.609Z,993.50
2023-03-10T01:13:36.664Z,993.49
2023-03-10T01:14:40.864Z,993.49
2023-03-10T01:15:45.059Z,993.46
2023-03-10T01:16:49.059Z,993.42
2023-03-10T01:17:56.370Z,993.41
2023-03-10T01:18:59.585Z,993.35
2023-03-10T01:20:03.774Z,993.35
2023-03-10T01:21:07.792Z,993.29
2023-03-10T01:22:12.055Z,993.25
2023-03-10T01:23:16.055Z,993.21
2023-03-10T01:24:20.288Z,993.15
2023-03-10T01:25:24.340Z,993.16
2023-03-10T01:26:28.508Z,993.15
2023-03-10T01:27:32.734Z,993.14
2023-03-10T01:28:36.738Z,993.12
2023-03-10T01:29:41.033Z,993.11
2023-03-10T01:30:45.027Z,993.11
2023-03-10T01:31:49.400Z,993.08
2023-03-10T01:32:53.427Z,993.11
2023-03-10T01:33:57.509Z,993.07
2023-03-10T01:35:01.746Z,993.06
2023-03-10T01:36:05.814Z,993.07
2023-03-10T01:37:09.855Z,993.03
2023-03-10T01:38:14.096Z,993.00
2023-03-10T01:39:18.277Z,992.99
2023-03-10T01:40:22.441Z,992.96
2023-03-10T01:41:26.554Z,992.93
2023-03-10T01:42:30.673Z,992.94
2023-03-10T01:43:34.726Z,992.94
2023-03-10T01:44:38.824Z,992.92
2023-03-10T01:45:43.078Z,992.93
2023-03-10T01:46:47.267Z,992.90
2023-03-10T01:47:51.428Z,992.88
2023-03-10T01:48:55.517Z,992.82
2023-03-10T01:49:59.704Z,992.78
2023-03-10T01:51:03.794Z,992.74
2023-03-10T01:52:08.055Z,992.72
2023-03-10T01:53:12.165Z,992.69
2023-03-10T01:54:16.357Z,992.68
2023-03-10T01:55:20.352Z,992.67
2023-03-10T01:56:24.654Z,992.67
2023-03-10T01:57:28.707Z,992.65
2023-03-10T01:58:32.975Z,992.67
2023-03-10T01:59:36.948Z,992.63
2023-03-10T02:00:55.096Z,992.63
2023-03-10T02:01:58.141Z,992.57
2023-03-10T02:03:04.979Z,992.56
2023-03-10T02:04:08.084Z,992.54
2023-03-10T02:05:12.280Z,992.52
2023-03-10T02:06:16.568Z,992.51
2023-03-10T02:07:20.618Z,992.47
2023-03-10T02:08:24.649Z,992.45
2023-03-10T02:09:28.775Z,992.42
2023-03-10T02:10:32.955Z,992.41
2023-03-10T02:11:37.162Z,992.41
2023-03-10T02:12:41.202Z,992.38
2023-03-10T02:13:45.333Z,992.37
2023-03-10T02:14:49.405Z,992.34
2023-03-10T02:15:53.552Z,992.34
2023-03-10T02:16:57.721Z,992.33
2023-03-10T02:18:01.968Z,992.30
2023-03-10T02:19:05.998Z,992.28
2023-03-10T02:20:10.115Z,992.26
2023-03-10T02:21:14.152Z,992.22
2023-03-10T02:22:18.465Z,992.22
2023-03-10T02:23:22.566Z,992.16
2023-03-10T02:24:26.797Z,992.13
2023-03-10T02:25:30.817Z,992.07
2023-03-10T02:26:35.032Z,992.09
2023-03-10T02:27:39.218Z,992.10
2023-03-10T02:28:43.287Z,992.08
2023-03-10T02:29:58.516Z,992.04
2023-03-10T02:30:51.551Z,992.06
2023-03-10T02:31:55.874Z,992.01
2023-03-10T02:32:59.883Z,991.99
2023-03-10T02:34:04.141Z,991.98
2023-03-10T02:35:08.250Z,991.94
2023-03-10T02:36:12.457Z,991.94
2023-03-10T02:37:16.486Z,991.90
2023-03-10T02:38:20.706Z,991.88
2023-03-10T02:39:24.809Z,991.87
2023-03-10T02:40:28.880Z,991.86
2023-03-10T02:41:33.068Z,991.87
2023-03-10T02:42:37.099Z,991.88
2023-03-10T02:43:41.218Z,991.85
2023-03-10T02:44:45.318Z,991.84
2023-03-10T02:45:49.593Z,991.82
2023-03-10T02:46:53.685Z,991.85
2023-03-10T02:47:57.918Z,991.84
2023-03-10T02:49:01.921Z,991.82
2023-03-10T02:50:06.151Z,991.79
2023-03-10T02:51:10.372Z,991.76
2023-03-10T02:52:14.394Z,991.71
2023-03-10T02:53:18.482Z,991.70
2023-03-10T02:54:22.577Z,991.69
2023-03-10T02:55:26.821Z,991.67
2023-03-10T02:56:30.848Z,991.64
2023-03-10T02:57:34.915Z,991.61
2023-03-10T02:58:39.184Z,991.58
2023-03-10T02:59:43.435Z,991.57
2023-03-10T03:00:47.594Z,991.56
2023-03-10T03:01:51.659Z,991.54
2023-03-10T03:02:55.758Z,991.50
2023-03-10T03:04:00.086Z,991.49
2023-03-10T03:05:04.109Z,991.47
2023-03-10T03:06:08.291Z,991.46
2023-03-10T03:07:12.499Z,991.47
2023-03-10T03:08:16.657Z,991.43
2023-03-10T03:09:20.684Z,991.40
2023-03-10T03:10:24.880Z,991.38
2023-03-10T03:11:29.042Z,991.34
2023-03-10T03:12:33.169Z,991.31
2023-03-10T03:13:51.363Z,991.33
2023-03-10T03:14:54.284Z,991.32
2023-03-10T03:15:58.316Z,991.33
2023-03-10T03:17:02.485Z,991.30
2023-03-10T03:18:06.569Z,991.31
2023-03-10T03:19:10.730Z,991.28
2023-03-10T03:20:14.864Z,991.26
2023-03-10T03:21:18.996Z,991.23
2023-03-10T03:22:23.043Z,991.22
2023-03-10T03:23:27.197Z,991.22
2023-03-10T03:24:31.361Z,991.20
2023-03-10T03:25:35.503Z,991.17
2023-03-10T03:26:39.731Z,991.18
2023-03-10T03:27:43.796Z,991.15
2023-03-10T03:28:47.884Z,991.14
2023-03-10T03:29:52.116Z,991.14
2023-03-10T03:30:56.384Z,991.11
2023-03-10T03:32:00.393Z,991.11
2023-03-10T03:33:04.470Z,991.12
2023-03-10T03:34:08.529Z,991.09
2023-03-10T03:35:12.837Z,991.08
2023-03-10T03:36:16.932Z,991.05
2023-03-10T03:37:21.038Z,991.02
2023-03-10T03:38:25.164Z,991.04
2023-03-10T03:39:29.336Z,991.02
2023-03-10T03:40:33.444Z,991.04
2023-03-10T03:41:37.597Z,991.02
2023-03-10T03:42:41.903Z,991.01
2023-03-10T03:43:45.958Z,990.98
2023-03-10T03:44:50.015Z,990.95
2023-03-10T03:45:54.259Z,990.93
2023-03-10T03:46:58.374Z,990.90
2023-03-10T03:48:02.468Z,990.91
2023-03-10T03:49:06.531Z,990.90
2023-03-10T03:50:10.784Z,990.91
2023-03-10T03:51:14.864Z,990.91
2023-03-10T03:52:19.000Z,990.90
2023-03-10T03:53:23.160Z,990.90
2023-03-10T03:54:27.403Z,990.89
2023-03-10T03:55:31.520Z,990.89
2023-03-10T03:56:35.615Z,990.92
2023-03-10T03:57:39.740Z,990.92
2023-03-10T03:58:43.895Z,990.92
2023-03-10T03:59:48.048Z,990.89
2023-03-10T04:00:52.193Z,990.85
2023-03-10T04:01:56.397Z,990.86
2023-03-10T04:03:00.515Z,990.88
2023-03-10T04:04:04.659Z,990.87
2023-03-10T04:05:08.831Z,990.86
2023-03-10T04:06:12.880Z,990.84
2023-03-10T04:07:16.978Z,990.80
2023-03-10T04:08:21.063Z,990.78
2023-03-10T04:09:25.187Z,990.76
2023-03-10T04:10:29.288Z,990.76
2023-03-10T04:11:33.375Z,990.76
2023-03-10T04:12:37.415Z,990.74
2023-03-10T04:13:41.588Z,990.71
2023-03-10T04:14:45.715Z,990.69
2023-03-10T04:15:49.939Z,990.67
2023-03-10T04:16:54.014Z,990.68
2023-03-10T04:17:58.341Z,990.67
2023-03-10T04:19:02.434Z,990.63
2023-03-10T04:20:08.472Z,990.60
2023-03-10T04:21:11.185Z,990.57
2023-03-10T04:22:15.520Z,990.54
2023-03-10T04:23:19.716Z,990.55
2023-03-10T04:24:23.871Z,990.53
2023-03-10T04:25:28.133Z,990.49
2023-03-10T04:27:59.318Z,990.44
2023-03-10T04:29:03.361Z,990.41
2023-03-10T04:30:07.475Z,990.39
2023-03-10T04:31:12.519Z,990.40
2023-03-10T04:32:16.361Z,990.39
2023-03-10T04:33:20.482Z,990.38
2023-03-10T04:34:24.793Z,990.38
2023-03-10T04:35:28.629Z,990.38
2023-03-10T04:36:32.746Z,990.36
2023-03-10T04:37:36.798Z,990.30
2023-03-10T04:38:40.993Z,990.31
2023-03-10T04:39:45.002Z,990.29
2023-03-10T04:40:49.161Z,990.26
2023-03-10T04:41:53.227Z,990.25
2023-03-10T04:42:57.388Z,990.20
2023-03-10T04:44:01.518Z,990.19
2023-03-10T04:45:05.719Z,990.17
2023-03-10T04:46:09.939Z,990.18
2023-03-10T04:47:14.242Z,990.15
2023-03-10T04:48:18.273Z,990.16
2023-03-10T04:49:22.453Z,990.12
2023-03-10T04:50:26.595Z,990.08
2023-03-10T04:51:30.678Z,990.06
2023-03-10T04:52:34.701Z,990.02
2023-03-10T04:53:39.015Z,990.02
2023-03-10T04:54:43.165Z,990.04
2023-03-10T04:55:47.189Z,990.05
2023-03-10T04:56:51.220Z,990.06
2023-03-10T04:57:55.416Z,990.04
2023-03-10T04:58:59.606Z,990.02
2023-03-10T05:00:03.819Z,990.01
2023-03-10T05:01:07.745Z,990.02
2023-03-10T05:02:11.918Z,989.99
2023-03-10T05:03:16.052Z,989.96
2023-03-10T05:04:20.258Z,989.97
2023-03-10T05:05:24.434Z,989.97
2023-03-10T05:06:28.505Z,989.99
2023-03-10T05:07:32.532Z,989.99
2023-03-10T05:08:36.806Z,990.00
2023-03-10T05:09:40.908Z,990.00
2023-03-10T05:10:45.036Z,990.01
2023-03-10T05:11:49.163Z,990.00
2023-03-10T05:12:53.383Z,989.99
2023-03-10T05:13:57.549Z,989.99
2023-03-10T05:15:01.646Z,989.96
2023-03-10T05:16:05.748Z,989.94
2023-03-10T05:17:09.857Z,989.91
2023-03-10T05:18:14.002Z,989.90
2023-03-10T05:19:18.130Z,989.91
2023-03-10T05:20:22.257Z,989.91
2023-03-10T05:21:26.473Z,989.91
2023-03-10T05:22:30.582Z,989.93
2023-03-10T05:23:34.670Z,989.92
2023-03-10T05:24:38.796Z,989.93
2023-03-10T05:25:42.904Z,989.95
2023-03-10T05:26:47.220Z,989.94
2023-03-10T05:27:51.344Z,989.90
2023-03-10T05:28:55.571Z,989.87
2023-03-10T05:29:59.624Z,989.86
2023-03-10T05:31:03.679Z,989.85
2023-03-10T05:32:07.833Z,989.84
2023-03-10T05:33:12.101Z,989.84
2023-03-10T05:34:16.226Z,989.81
2023-03-10T05:35:20.359Z,989.81
2023-03-10T05:36:24.464Z,989.79
2023-03-10T05:37:28.690Z,989.81
2023-03-10T05:38:32.859Z,989.83
2023-03-10T05:39:36.938Z,989.80
2023-03-10T05:40:41.045Z,989.84
2023-03-10T05:41:45.156Z,989.81
2023-03-10T05:42:49.350Z,989.83
2023-03-10T05:43:53.466Z,989.81
2023-03-10T05:44:57.540Z,989.78
2023-03-10T05:46:01.601Z,989.77
2023-03-10T05:47:05.856Z,989.75
2023-03-10T05:48:09.851Z,989.76
2023-03-10T05:49:14.082Z,989.74
2023-03-10T05:50:18.224Z,989.74
2023-03-10T05:51:22.365Z,989.73
2023-03-10T05:52:26.538Z,989.72
2023-03-10T05:53:30.609Z,989.69
2023-03-10T05:54:34.716Z,989.68
2023-03-10T05:55:38.947Z,989.71
2023-03-10T05:56:43.152Z,989.67
2023-03-10T05:57:47.228Z,989.67
2023-03-10T05:58:51.355Z,989.66
2023-03-10T05:59:55.505Z,989.68
2023-03-10T06:00:59.752Z,989.66
2023-03-10T06:02:04.034Z,989.65
2023-03-10T06:03:08.168Z,989.64
2023-03-10T06:04:12.255Z,989.63
2023-03-10T06:05:16.340Z,989.64
2023-03-10T06:06:20.483Z,989.63
2023-03-10T06:07:24.755Z,989.62
2023-03-10T06:08:28.914Z,989.63
2023-03-10T06:09:32.953Z,989.62
2023-03-10T06:10:37.126Z,989.60
2023-03-10T06:11:41.329Z,989.60
2023-03-10T06:12:45.397Z,989.59
2023-03-10T06:13:49.535Z,989.58
2023-03-10T06:14:53.560Z,989.57
2023-03-10T06:15:57.868Z,989.57
2023-03-10T06:17:01.915Z,989.57
2023-03-10T06:18:06.223Z,989.58
2023-03-10T06:19:10.179Z,989.55
2023-03-10T06:20:14.368Z,989.52
2023-03-10T06:21:18.413Z,989.52
2023-03-10T06:22:22.638Z,989.50
2023-03-10T06:23:26.653Z,989.49
2023-03-10T06:24:30.938Z,989.48
2023-03-10T06:25:35.091Z,989.47
2023-03-10T06:26:39.165Z,989.45
2023-03-10T06:27:43.386Z,989.47
2023-03-10T06:28:47.614Z,989.44
2023-03-10T06:29:51.642Z,989.41
2023-03-10T06:30:55.855Z,989.40
2023-03-10T06:31:59.860Z,989.38
2023-03-10T06:33:04.057Z,989.41
2023-03-10T06:34:08.084Z,989.39
2023-03-10T06:35:12.275Z,989.41
2023-03-10T06:36:16.655Z,989.42
2023-03-10T06:37:20.625Z,989.41
2023-03-10T06:38:24.782Z,989.39
2023-03-10T06:39:28.904Z,989.37
2023-03-10T06:40:33.142Z,989.37
2023-03-10T06:41:40.114Z,989.36
2023-03-10T06:42:43.327Z,989.38
2023-03-10T06:43:47.473Z,989.35
2023-03-10T06:44:51.664Z,989.36
2023-03-10T06:45:55.834Z,989.34
2023-03-10T06:46:59.752Z,989.32
2023-03-10T06:48:03.923Z,989.32
2023-03-10T06:49:07.974Z,989.33
2023-03-10T06:50:12.089Z,989.35
2023-03-10T06:51:16.229Z,989.38
2023-03-10T06:52:20.411Z,989.38
2023-03-10T06:53:24.512Z,989.39
2023-03-10T06:54:28.617Z,989.36
2023-03-10T06:55:32.861Z,989.36
2023-03-10T06:56:36.975Z,989.38
2023-03-10T06:57:41.180Z,989.38
2023-03-10T06:58:45.271Z,989.38
2023-03-10T06:59:49.243Z,989.36
2023-03-10T07:00:53.423Z,989.36
2023-03-10T07:01:57.536Z,989.38
2023-03-10T07:03:01.638Z,989.36
2023-03-10T07:04:05.815Z,989.36
2023-03-10T07:05:09.892Z,989.37
2023-03-10T07:06:13.929Z,989.38
2023-03-10T07:07:18.119Z,989.35
2023-03-10T07:08:22.283Z,989.32
2023-03-10T07:09:26.459Z,989.34
2023-03-10T07:10:30.571Z,989.33
2023-03-10T07:11:34.709Z,989.31
2023-03-10T07:12:38.830Z,989.32
2023-03-10T07:13:42.873Z,989.32
2023-03-10T07:14:46.971Z,989.30
2023-03-10T07:15:51.030Z,989.34
2023-03-10T07:16:55.286Z,989.34
2023-03-10T07:17:59.310Z,989.30
2023-03-10T07:19:03.454Z,989.31
2023-03-10T07:20:07.579Z,989.32
2023-03-10T07:21:11.722Z,989.31
2023-03-10T07:22:15.829Z,989.32
2023-03-10T07:23:34.160Z,989.33
2023-03-10T07:24:36.885Z,989.32
2023-03-10T07:25:40.817Z,989.36
2023-03-10T07:26:44.980Z,989.33
2023-03-10T07:27:48.996Z,989.33
2023-03-10T07:28:53.066Z,989.33
2023-03-10T07:29:57.201Z,989.31
2023-03-10T07:31:04.515Z,989.32
2023-03-10T07:32:08.538Z,989.28
2023-03-10T07:33:12.266Z,989.26
2023-03-10T07:34:16.398Z,989.27
2023-03-10T07:35:20.560Z,989.27
2023-03-10T07:36:24.654Z,989.28
2023-03-10T07:37:28.734Z,989.29
2023-03-10T07:38:32.870Z,989.28
2023-03-10T07:39:36.926Z,989.28
2023-03-10T07:40:41.051Z,989.31
2023-03-10T07:41:45.116Z,989.32
2023-03-10T07:42:49.182Z,989.34
2023-03-10T07:43:53.490Z,989.35
2023-03-10T07:44:57.580Z,989.35
2023-03-10T07:46:01.751Z,989.35
2023-03-10T07:47:05.849Z,989.35
2023-03-10T07:48:09.976Z,989.35
2023-03-10T07:49:14.144Z,989.38
2023-03-10T07:50:18.213Z,989.38
2023-03-10T07:51:22.372Z,989.40
2023-03-10T07:52:26.483Z,989.41
2023-03-10T07:53:30.653Z,989.44
2023-03-10T07:54:34.744Z,989.44
2023-03-10T07:55:38.849Z,989.45
2023-03-10T07:56:42.964Z,989.44
2023-03-10T07:57:46.971Z,989.43
2023-03-10T07:58:51.199Z,989.42
2023-03-10T07:59:55.244Z,989.41
2023-03-10T08:00:59.429Z,989.38
2023-03-10T08:02:03.676Z,989.38
2023-03-10T08:03:07.682Z,989.38
2023-03-10T08:04:11.941Z,989.40
2023-03-10T08:05:16.049Z,989.41
2023-03-10T08:06:19.920Z,989.42
2023-03-10T08:07:27.128Z,989.43
2023-03-10T08:08:30.219Z,989.44
2023-03-10T08:09:34.303Z,989.45
2023-03-10T08:10:39.092Z,989.49
2023-03-10T08:11:42.610Z,989.49
2023-03-10T08:12:46.731Z,989.53
2023-03-10T08:13:51.109Z,989.52
2023-03-10T08:14:54.988Z,989.54
2023-03-10T08:15:59.110Z,989.53
2023-03-10T08:17:03.272Z,989.54
2023-03-10T08:18:07.337Z,989.50
2023-03-10T08:19:11.523Z,989.49
2023-03-10T08:20:15.630Z,989.47
2023-03-10T08:21:19.784Z,989.47
2023-03-10T08:22:23.907Z,989.48
2023-03-10T08:23:27.975Z,989.49
2023-03-10T08:24:32.184Z,989.51
2023-03-10T08:25:36.650Z,989.50
2023-03-10T08:26:40.422Z,989.51
2023-03-10T08:27:44.604Z,989.52
2023-03-10T08:28:48.636Z,989.49
2023-03-10T08:29:52.802Z,989.49
2023-03-10T08:31:04.952Z,989.48
2023-03-10T08:32:01.246Z,989.50
2023-03-10T08:33:05.360Z,989.50
2023-03-10T08:34:09.428Z,989.50
2023-03-10T08:35:13.771Z,989.49
2023-03-10T08:36:17.712Z,989.50
2023-03-10T08:37:21.817Z,989.51
2023-03-10T08:38:25.981Z,989.49
2023-03-10T08:39:30.150Z,989.50
2023-03-10T08:40:34.304Z,989.51
2023-03-10T08:41:38.389Z,989.56
2023-03-10T08:42:42.454Z,989.55
2023-03-10T08:43:49.027Z,989.58
2023-03-10T08:44:50.732Z,989.59
2023-03-10T08:45:54.812Z,989.59
2023-03-10T08:46:58.997Z,989.58
2023-03-10T08:48:03.067Z,989.61
2023-03-10T08:49:07.247Z,989.58
2023-03-10T08:50:11.543Z,989.59
2023-03-10T08:51:16.321Z,989.58
2023-03-10T08:52:19.726Z,989.57
2023-03-10T08:53:26.892Z,989.56
2023-03-10T08:54:32.391Z,989.54
2023-03-10T08:55:34.097Z,989.52
2023-03-10T08:56:38.244Z,989.52
2023-03-10T08:57:42.528Z,989.51
2023-03-10T08:58:46.643Z,989.51
2023-03-10T08:59:50.691Z,989.52
2023-03-10T09:00:54.852Z,989.52
2023-03-10T09:01:58.968Z,989.53
2023-03-10T09:03:03.179Z,989.52
2023-03-10T09:04:07.171Z,989.50
2023-03-10T09:05:11.396Z,989.50
2023-03-10T09:06:15.714Z,989.52
2023-03-10T09:07:19.747Z,989.51
2023-03-10T09:08:26.292Z,989.53
2023-03-10T09:09:27.968Z,989.52
2023-03-10T09:10:32.190Z,989.50
2023-03-10T09:11:38.812Z,989.48
2023-03-10T09:12:40.436Z,989.44
2023-03-10T09:13:44.667Z,989.46
2023-03-10T09:14:48.796Z,989.44
2023-03-10T09:15:53.014Z,989.43
2023-03-10T09:16:57.239Z,989.46
2023-03-10T09:18:01.212Z,989.48
2023-03-10T09:19:05.262Z,989.52
2023-03-10T09:20:09.336Z,989.54
2023-03-10T09:21:13.561Z,989.55
2023-03-10T09:22:17.856Z,989.54
2023-03-10T09:23:21.768Z,989.54
2023-03-10T09:24:25.974Z,989.55
2023-03-10T09:25:30.022Z,989.57
2023-03-10T09:26:34.202Z,989.56
2023-03-10T09:27:38.259Z,989.56
2023-03-10T09:28:42.386Z,989.58
2023-03-10T09:30:50.759Z,989.62
2023-03-10T09:31:55.092Z,989.63
2023-03-10T09:32:59.182Z,989.63
2023-03-10T09:34:03.243Z,989.67
2023-03-10T09:35:07.296Z,989.66
2023-03-10T09:36:11.587Z,989.70
2023-03-10T09:37:15.560Z,989.70
2023-03-10T09:38:19.883Z,989.69
2023-03-10T09:39:23.991Z,989.70
2023-03-10T09:40:28.012Z,989.71
2023-03-10T09:41:34.615Z,989.71
2023-03-10T09:42:38.338Z,989.73
2023-03-10T09:43:40.323Z,989.74
2023-03-10T09:44:44.561Z,989.75
2023-03-10T09:45:48.789Z,989.77
2023-03-10T09:46:52.714Z,989.77
2023-03-10T09:47:56.852Z,989.77
2023-03-10T09:49:01.102Z,989.76
2023-03-10T09:50:05.156Z,989.78
2023-03-10T09:51:09.239Z,989.79
2023-03-10T09:52:15.118Z,989.76
2023-03-10T09:53:17.520Z,989.78
2023-03-10T09:54:21.736Z,989.75
2023-03-10T09:55:25.981Z,989.76
2023-03-10T09:56:30.206Z,989.73
2023-03-10T09:57:34.234Z,989.74
2023-03-10T09:58:38.308Z,989.75
2023-03-10T09:59:42.384Z,989.74
2023-03-10T10:00:46.666Z,989.75
2023-03-10T10:01:50.762Z,989.75
2023-03-10T10:02:54.860Z,989.74
2023-03-10T10:03:59.201Z,989.76
2023-03-10T10:05:04.119Z,989.77
2023-03-10T10:06:07.254Z,989.80
2023-03-10T10:07:11.528Z,989.80
2023-03-10T10:08:15.590Z,989.81
2023-03-10T10:09:19.806Z,989.83
2023-03-10T10:10:23.833Z,989.84
2023-03-10T10:11:27.957Z,989.85
2023-03-10T10:12:32.059Z,989.85
2023-03-10T10:13:36.204Z,989.86
2023-03-10T10:14:48.170Z,989.86
2023-03-10T10:15:44.426Z,989.84
2023-03-10T10:16:48.682Z,989.80
2023-03-10T10:18:00.419Z,989.79
2023-03-10T10:18:57.101Z,989.78
2023-03-10T10:20:01.148Z,989.81
2023-03-10T10:21:05.458Z,989.82
2023-03-10T10:22:09.550Z,989.84
2023-03-10T10:23:13.730Z,989.90
2023-03-10T10:24:17.996Z,989.92
2023-03-10T10:25:22.104Z,989.97
2023-03-10T10:26:26.268Z,989.98
2023-03-10T10:27:30.276Z,989.99
2023-03-10T10:28:34.456Z,990.01
2023-03-10T10:29:38.522Z,990.05
2023-03-10T10:30:42.686Z,990.04
2023-03-10T10:31:46.816Z,990.06
2023-03-10T10:32:51.136Z,990.06
2023-03-10T10:33:55.166Z,990.08
2023-03-10T10:34:59.342Z,990.04
2023-03-10T10:36:03.531Z,990.05
2023-03-10T10:37:07.561Z,990.06
2023-03-10T10:38:11.716Z,990.06
2023-03-10T10:39:15.785Z,990.02
2023-03-10T10:40:20.051Z,990.01
2023-03-10T10:41:24.208Z,990.02
2023-03-10T10:42:28.461Z,990.02
2023-03-10T10:43:34.130Z,990.01
2023-03-10T10:44:36.647Z,990.01
2023-03-10T10:45:40.845Z,990.01
2023-03-10T10:46:44.894Z,990.02
2023-03-10T10:47:48.962Z,990.03
2023-03-10T10:48:53.159Z,990.06
2023-03-10T10:49:57.334Z,990.09
2023-03-10T10:51:01.486Z,990.06
2023-03-10T10:52:05.646Z,990.04
2023-03-10T10:53:09.669Z,990.06
2023-03-10T10:54:13.997Z,990.10
2023-03-10T10:55:18.024Z,990.10
2023-03-10T10:56:22.125Z,990.11
2023-03-10T10:57:26.269Z,990.13
2023-03-10T10:58:30.487Z,990.13
2023-03-10T10:59:34.599Z,990.14
2023-03-10T11:00:38.773Z,990.13
2023-03-10T11:01:43.056Z,990.16
2023-03-10T11:02:47.101Z,990.17
2023-03-10T11:05:17.965Z,990.15
2023-03-10T11:06:21.966Z,990.19
2023-03-10T11:07:26.183Z,990.18
2023-03-10T11:08:30.360Z,990.15
2023-03-10T11:09:34.517Z,990.15
2023-03-10T11:10:38.737Z,990.12
2023-03-10T11:11:42.879Z,990.14
2023-03-10T11:12:46.981Z,990.16
2023-03-10T11:13:51.188Z,990.16
2023-03-10T11:14:57.548Z,990.17
2023-03-10T11:15:59.474Z,990.17
2023-03-10T11:17:03.653Z,990.18
2023-03-10T11:18:07.726Z,990.17
2023-03-10T11:19:11.792Z,990.16
2023-03-10T11:20:16.000Z,990.12
2023-03-10T11:21:20.093Z,990.15
2023-03-10T11:22:24.288Z,990.18
2023-03-10T11:23:28.548Z,990.18
2023-03-10T11:24:32.625Z,990.17
2023-03-10T11:25:36.798Z,990.18
2023-03-10T11:26:41.129Z,990.16
2023-03-10T11:27:45.218Z,990.15
2023-03-10T11:28:49.372Z,990.16
2023-03-10T11:29:53.528Z,990.15
2023-03-10T11:30:57.642Z,990.14
2023-03-10T11:32:01.885Z,990.14
2023-03-10T11:33:06.062Z,990.17
2023-03-10T11:34:10.192Z,990.17
2023-03-10T11:35:14.354Z,990.19
2023-03-10T11:36:18.528Z,990.17
2023-03-10T11:37:22.618Z,990.14
2023-03-10T11:38:26.661Z,990.16
2023-03-10T11:39:30.753Z,990.15
2023-03-10T11:40:34.959Z,990.15
2023-03-10T11:41:39.161Z,990.16
2023-03-10T11:42:43.314Z,990.15
2023-03-10T11:43:47.502Z,990.17
2023-03-10T11:44:51.630Z,990.15
2023-03-10T11:45:55.840Z,990.14
2023-03-10T11:46:59.816Z,990.13
2023-03-10T11:48:03.939Z,990.14
2023-03-10T11:49:08.040Z,990.14
2023-03-10T11:50:12.236Z,990.13
2023-03-10T11:51:16.392Z,990.14
2023-03-10T11:52:20.631Z,990.13
2023-03-10T11:53:24.737Z,990.12
2023-03-10T11:54:28.795Z,990.13
2023-03-10T11:55:32.893Z,990.12
2023-03-10T11:56:40.102Z,990.12
2023-03-10T11:57:43.278Z,990.11
2023-03-10T11:58:47.384Z,990.11
2023-03-10T11:59:51.500Z,990.10
2023-03-10T12:00:55.672Z,990.10
2023-03-10T12:01:59.865Z,990.09
2023-03-10T12:03:03.878Z,990.08
2023-03-10T12:04:08.115Z,990.10
2023-03-10T12:05:12.351Z,990.08
2023-03-10T12:06:16.367Z,990.11
2023-03-10T12:07:20.443Z,990.08
2023-03-10T12:08:24.670Z,990.07
2023-03-10T12:09:28.804Z,990.08
2023-03-10T12:10:33.013Z,990.06
2023-03-10T12:11:37.124Z,990.05
2023-03-10T12:12:41.170Z,990.06
2023-03-10T12:13:45.308Z,990.08
2023-03-10T12:14:49.435Z,990.07
2023-03-10T12:15:53.800Z,990.09
2023-03-10T12:16:57.842Z,990.09
2023-03-10T12:18:01.909Z,990.10
2023-03-10T12:19:06.300Z,990.12
2023-03-10T12:20:10.353Z,990.12
2023-03-10T12:21:14.480Z,990.13
2023-03-10T12:22:18.555Z,990.11
2023-03-10T12:23:22.793Z,990.08
2023-03-10T12:24:26.912Z,990.10
2023-03-10T12:25:31.057Z,990.07
2023-03-10T12:26:35.276Z,990.07
2023-03-10T12:27:39.377Z,990.06
2023-03-10T12:28:43.540Z,990.05
2023-03-10T12:29:47.568Z,990.02
2023-03-10T12:30:51.841Z,990.01
2023-03-10T12:31:56.128Z,989.98
2023-03-10T12:33:00.151Z,989.99
2023-03-10T12:34:04.619Z,989.95
2023-03-10T12:35:08.644Z,989.94
2023-03-10T12:36:12.766Z,989.92
2023-03-10T12:37:16.913Z,989.89
2023-03-10T12:38:21.000Z,989.87
2023-03-10T12:39:25.166Z,989.81
2023-03-10T12:40:29.258Z,989.80
2023-03-10T12:41:33.423Z,989.79
2023-03-10T12:42:37.567Z,989.76
2023-03-10T12:43:41.618Z,989.75
2023-03-10T12:44:45.849Z,989.72
2023-03-10T12:45:49.991Z,989.68
2023-03-10T12:46:54.228Z,989.66
2023-03-10T12:47:58.323Z,989.65
2023-03-10T12:49:02.481Z,989.63
2023-03-10T12:50:06.850Z,989.63
2023-03-10T12:51:10.873Z,989.60
2023-03-10T12:52:15.058Z,989.58
2023-03-10T12:53:19.245Z,989.55
2023-03-10T12:54:23.556Z,989.51
2023-03-10T12:55:27.588Z,989.48
2023-03-10T12:56:31.778Z,989.46
2023-03-10T12:57:36.048Z,989.44
2023-03-10T12:58:40.136Z,989.42
2023-03-10T12:59:44.397Z,989.39
2023-03-10T13:00:48.664Z,989.40
2023-03-10T13:01:56.224Z,989.36
2023-03-10T13:02:56.754Z,989.38
2023-03-10T13:04:01.016Z,989.37
2023-03-10T13:05:04.946Z,989.39
2023-03-10T13:06:09.287Z,989.41
2023-03-10T13:07:13.360Z,989.41
2023-03-10T13:08:17.538Z,989.42
2023-03-10T13:09:21.791Z,989.44
2023-03-10T13:10:25.862Z,989.42
2023-03-10T13:11:30.063Z,989.45
2023-03-10T13:12:40.197Z,989.48
2023-03-10T13:13:42.905Z,989.46
2023-03-10T13:14:47.157Z,989.49
2023-03-10T13:15:51.242Z,989.49
2023-03-10T13:16:55.378Z,989.52
2023-03-10T13:17:59.439Z,989.53
2023-03-10T13:19:03.697Z,989.57
2023-03-10T13:20:07.832Z,989.60
2023-03-10T13:21:11.989Z,989.65
2023-03-10T13:22:16.146Z,989.69
2023-03-10T13:23:20.230Z,989.77
2023-03-10T13:24:24.400Z,989.85
2023-03-10T13:25:28.421Z,989.94